Time;durP1;ratioP1;P1;durP2;ratioP2;P2;SDS_P1;SDS_P2;PMS_P1;PMS_P2;Temp;Humidity;BMP_temperature;BMP_pressure;BME280_temperature;BME280_humidity;BME280_pressure;Samples;Min_cycle;Max_cycle;Signal;HPM_P1;HPM_P2
2021/08/06 00:02:17;;;;;;;;;;;;;;;27.97;44.45;99341.83;1749531;80;20185;-42
2021/08/06 00:04:43;;;;;;;;;;;;;;;27.98;44.50;99339.23;1753584;80;20198;-43
2021/08/06 00:07:10;;;;;;;;;;;;;;;27.98;44.54;99337.84;1751613;80;20752;-40
2021/08/06 00:09:36;;;;;;;;;;;;;;;27.97;44.58;99337.03;1753062;80;20325;-41
2021/08/06 00:12:03;;;;;;;;;;;;;;;27.97;44.60;99335.64;1754269;80;21159;-42
2021/08/06 00:14:29;;;;;;;;;;;;;;;27.98;44.66;99340.63;1751116;80;20544;-41
2021/08/06 00:16:55;;;;;;;;;;;;;;;27.97;44.70;99352.41;1749368;80;20190;-42
2021/08/06 00:19:21;;;;;;;;;;;;;;;27.99;44.73;99359.01;1750775;80;20435;-42
2021/08/06 00:21:47;;;;;;;;;;;;;;;27.99;44.77;99357.61;1747170;80;20200;-40
2021/08/06 00:24:13;;;;;;;;;;;;;;;28.00;44.79;99359.22;1747202;80;21156;-42
2021/08/06 00:26:39;;;;;;;;;;;;;;;28.00;44.82;99357.22;1746536;80;20782;-42
2021/08/06 00:29:05;;;;;;;;;;;;;;;28.00;44.87;99357.22;1748275;80;20199;-42
2021/08/06 00:31:31;;;;;;;;;;;;;;;28.00;44.90;99364.80;1753864;80;22092;-43
2021/08/06 00:33:57;;;;;;;;;;;;;;;28.01;44.95;99362.98;1749374;80;20197;-42
2021/08/06 00:36:22;;;;;;;;;;;;;;;28.00;44.96;99370.40;1752805;80;21095;-43
2021/08/06 00:38:48;;;;;;;;;;;;;;;28.01;45.01;99364.38;1752582;80;20224;-40
2021/08/06 00:41:14;;;;;;;;;;;;;;;28.02;45.04;99361.80;1746870;80;20199;-43
2021/08/06 00:43:40;;;;;;;;;;;;;;;28.03;45.10;99361.20;1755695;80;21312;-43
2021/08/06 00:46:07;;;;;;;;;;;;;;;28.03;45.12;99360.60;1745825;80;20435;-43
2021/08/06 00:48:33;;;;;;;;;;;;;;;28.02;45.14;99365.98;1744785;80;21109;-41
2021/08/06 00:50:59;;;;;;;;;;;;;;;28.03;45.18;99379.37;1748509;80;20186;-40
2021/08/06 00:53:25;;;;;;;;;;;;;;;28.02;45.20;99385.56;1730588;81;20154;-41
2021/08/06 00:55:51;;;;;;;;;;;;;;;28.03;45.24;99384.96;1750136;80;20470;-42
2021/08/06 00:58:17;;;;;;;;;;;;;;;28.04;45.27;99389.36;1747584;80;21788;-42
2021/08/06 01:00:48;;;;;;;;;;;;;;;28.03;45.30;99384.96;1745489;80;23257;-42
2021/08/06 01:03:18;;;;;;;;;;;;;;;28.04;45.33;99392.95;1740952;80;20143;-41
2021/08/06 01:05:46;;;;;;;;;;;;;;;28.04;45.35;99388.77;1750649;80;20135;-43
2021/08/06 01:08:16;;;;;;;;;;;;;;;28.05;45.37;99396.55;1749623;80;20184;-40
2021/08/06 01:10:48;;;;;;;;;;;;;;;28.04;45.41;99391.56;1747120;80;20186;-42
2021/08/06 01:13:16;;;;;;;;;;;;;;;28.05;45.42;99382.58;1752220;80;21135;-42
2021/08/06 01:15:42;;;;;;;;;;;;;;;28.04;45.45;99378.98;1744329;80;20310;-42
2021/08/06 01:18:08;;;;;;;;;;;;;;;28.05;45.49;99381.18;1744518;80;20186;-41
2021/08/06 01:20:39;;;;;;;;;;;;;;;28.04;45.51;99381.77;1749077;80;22259;-44
2021/08/06 01:23:17;;;;;;;;;;;;;;;28.06;45.53;99384.15;1751252;80;20158;-42
2021/08/06 01:26:05;;;;;;;;;;;;;;;28.06;45.55;99375.16;1671271;84;21117;-40
2021/08/06 01:28:33;;;;;;;;;;;;;;;28.05;45.56;99381.95;1675125;83;20481;-42
2021/08/06 01:30:59;;;;;;;;;;;;;;;28.04;45.60;99380.38;1708648;83;20163;-42
2021/08/06 01:33:25;;;;;;;;;;;;;;;28.05;45.62;99381.95;1750311;80;20262;-42
2021/08/06 01:35:51;;;;;;;;;;;;;;;28.06;45.63;99384.15;1745109;80;20482;-41
2021/08/06 01:38:17;;;;;;;;;;;;;;;28.06;45.66;99379.95;1754124;80;22879;-45
2021/08/06 01:41:07;;;;;;;;;;;;;;;28.05;45.70;99377.75;1749068;80;20190;-42
2021/08/06 01:44:00;;;;;;;;;;;;;;;28.06;45.72;99375.16;1746048;80;20577;-41
2021/08/06 01:46:43;;;;;;;;;;;;;;;28.06;45.75;99365.98;1751778;80;20181;-42
2021/08/06 01:49:25;;;;;;;;;;;;;;;28.06;45.78;99371.56;1749221;80;20206;-41
2021/08/06 01:52:05;;;;;;;;;;;;;;;28.07;45.79;99366.18;1751762;80;21149;-41
2021/08/06 01:54:31;;;;;;;;;;;;;;;28.06;45.81;99379.95;1755336;80;20336;-40
2021/08/06 01:56:58;;;;;;;;;;;;;;;28.06;45.85;99380.75;1753324;80;20175;-41
2021/08/06 01:59:25;;;;;;;;;;;;;;;28.06;45.87;99377.96;1724826;80;20141;-41
2021/08/06 02:01:52;;;;;;;;;;;;;;;28.07;45.91;99382.36;1752638;80;20101;-41
2021/08/06 02:04:18;;;;;;;;;;;;;;;28.06;45.92;99376.56;1739531;80;21212;-41
2021/08/06 02:06:44;;;;;;;;;;;;;;;28.08;45.96;99373.38;1748012;80;20249;-42
2021/08/06 02:09:17;;;;;;;;;;;;;;;28.07;45.97;99377.36;1755003;80;20190;-42
2021/08/06 02:11:44;;;;;;;;;;;;;;;28.08;46.01;99380.36;1747001;80;20159;-42
2021/08/06 02:14:12;;;;;;;;;;;;;;;28.08;46.02;99385.36;1748651;80;20159;-41
2021/08/06 02:16:39;;;;;;;;;;;;;;;28.10;46.05;99387.77;1750226;80;21291;-41
2021/08/06 02:19:05;;;;;;;;;;;;;;;28.09;46.05;99380.57;1729016;81;20410;-42
2021/08/06 02:21:32;;;;;;;;;;;;;;;28.09;46.10;99389.76;1740065;80;20675;-41
2021/08/06 02:24:01;;;;;;;;;;;;;;;28.10;46.11;99390.56;1755628;80;20145;-42
2021/08/06 02:26:27;;;;;;;;;;;;;;;28.10;46.11;99386.37;1733273;80;20151;-40
2021/08/06 02:28:53;;;;;;;;;;;;;;;28.10;46.14;99373.78;1751209;80;21131;-43
2021/08/06 02:31:19;;;;;;;;;;;;;;;28.10;46.16;99365.39;1751413;80;20258;-41
2021/08/06 02:33:44;;;;;;;;;;;;;;;28.11;46.20;99375.39;1756189;80;20815;-42
2021/08/06 02:36:10;;;;;;;;;;;;;;;28.10;46.20;99388.56;1751065;80;22170;-42
2021/08/06 02:38:36;;;;;;;;;;;;;;;28.10;46.23;99392.77;1742833;80;20156;-41
2021/08/06 02:41:02;;;;;;;;;;;;;;;28.11;46.26;99383.77;1755285;80;21008;-41
2021/08/06 02:43:28;;;;;;;;;;;;;;;28.12;46.24;99390.97;1750319;80;20194;-42
2021/08/06 02:45:54;;;;;;;;;;;;;;;28.12;46.28;99387.58;1745487;80;20209;-42
2021/08/06 02:48:20;;;;;;;;;;;;;;;28.12;46.29;99383.38;1749934;80;22160;-41
2021/08/06 02:50:45;;;;;;;;;;;;;;;28.12;46.29;99395.97;1746546;80;20185;-41
2021/08/06 02:53:11;;;;;;;;;;;;;;;28.13;46.32;99389.78;1751301;80;21280;-41
2021/08/06 02:55:37;;;;;;;;;;;;;;;28.13;46.34;99401.73;1757778;80;20141;-41
2021/08/06 02:58:03;;;;;;;;;;;;;;;28.14;46.35;99408.13;1744285;80;20489;-42
2021/08/06 03:00:29;;;;;;;;;;;;;;;28.14;46.38;99419.31;1757476;80;20706;-40
2021/08/06 03:02:55;;;;;;;;;;;;;;;28.14;46.37;99415.92;1748836;80;20117;-42
2021/08/06 03:05:21;;;;;;;;;;;;;;;28.14;46.40;99410.92;1752125;80;21820;-41
2021/08/06 03:07:52;;;;;;;;;;;;;;;28.13;46.40;99419.91;1754026;80;20262;-42
2021/08/06 03:10:19;;;;;;;;;;;;;;;28.15;46.42;99432.91;1743607;81;20243;-42
2021/08/06 03:12:46;;;;;;;;;;;;;;;28.14;46.45;99455.07;1744146;80;20173;-42
2021/08/06 03:15:13;;;;;;;;;;;;;;;28.15;46.46;99446.08;1744304;80;20173;-43
2021/08/06 03:17:41;;;;;;;;;;;;;;;28.15;46.47;99422.31;1733923;81;21070;-41
2021/08/06 03:20:15;;;;;;;;;;;;;;;28.15;46.50;99431.50;1740397;81;20150;-42
2021/08/06 03:22:41;;;;;;;;;;;;;;;28.15;46.51;99426.51;1742144;80;20145;-42
2021/08/06 03:25:08;;;;;;;;;;;;;;;28.15;46.53;99427.31;1740060;80;20237;-42
2021/08/06 03:27:34;;;;;;;;;;;;;;;28.17;46.54;99454.08;1744099;80;20415;-41
2021/08/06 03:30:00;;;;;;;;;;;;;;;28.16;46.56;99475.66;1742510;81;21926;-41
2021/08/06 03:32:26;;;;;;;;;;;;;;;28.17;46.57;99490.44;1752515;80;20171;-42
2021/08/06 03:34:51;;;;;;;;;;;;;;;28.17;46.59;99528.99;1755086;80;20187;-41
2021/08/06 03:37:17;;;;;;;;;;;;;;;28.17;46.63;99544.97;1743810;80;20246;-43
2021/08/06 03:39:43;;;;;;;;;;;;;;;28.17;46.64;99547.77;1743730;80;20179;-41
2021/08/06 03:42:09;;;;;;;;;;;;;;;28.17;46.65;99549.97;1750394;80;21932;-41
2021/08/06 03:44:35;;;;;;;;;;;;;;;28.18;46.69;99545.17;1750407;80;20177;-42
2021/08/06 03:47:01;;;;;;;;;;;;;;;28.17;46.72;99541.58;1751274;80;20172;-43
2021/08/06 03:49:27;;;;;;;;;;;;;;;28.17;46.76;99538.78;1743500;80;20163;-44
2021/08/06 03:51:53;;;;;;;;;;;;;;;28.18;46.80;99540.36;1742648;80;20446;-42
2021/08/06 03:54:19;;;;;;;;;;;;;;;28.17;46.84;99530.39;1737710;81;22106;-45
2021/08/06 03:56:45;;;;;;;;;;;;;;;28.19;46.87;99508.41;1743512;80;20262;-44
2021/08/06 03:59:10;;;;;;;;;;;;;;;28.18;46.92;99487.84;1739046;81;20298;-43
2021/08/06 04:01:36;;;;;;;;;;;;;;;28.19;46.94;99458.66;1743321;81;20670;-43
2021/08/06 04:04:03;;;;;;;;;;;;;;;28.19;46.95;99419.51;1740598;80;20723;-43
2021/08/06 04:06:29;;;;;;;;;;;;;;;28.20;46.98;99399.54;1740625;80;21191;-43
2021/08/06 04:08:55;;;;;;;;;;;;;;;28.19;47.00;99371.38;1743118;80;20735;-44
2021/08/06 04:11:21;;;;;;;;;;;;;;;28.20;47.04;99360.98;1749446;80;20210;-45
2021/08/06 04:13:47;;;;;;;;;;;;;;;28.19;47.06;99367.77;1750571;80;20138;-45
2021/08/06 04:16:13;;;;;;;;;;;;;;;28.20;47.07;99370.17;1756161;80;20240;-45
2021/08/06 04:18:39;;;;;;;;;;;;;;;28.20;47.11;99362.38;1746734;80;21079;-42
2021/08/06 04:21:05;;;;;;;;;;;;;;;28.20;47.11;99352.59;1752343;80;20826;-44
2021/08/06 04:23:31;;;;;;;;;;;;;;;28.21;47.12;99364.78;1754783;80;20188;-43
2021/08/06 04:25:56;;;;;;;;;;;;;;;28.22;47.18;99373.98;1752416;80;20144;-43
2021/08/06 04:28:22;;;;;;;;;;;;;;;28.22;47.21;99373.98;1750993;80;20257;-42
2021/08/06 04:30:48;;;;;;;;;;;;;;;28.21;47.24;99383.56;1749297;80;21174;-41
2021/08/06 04:33:14;;;;;;;;;;;;;;;28.21;47.25;99408.13;1746574;80;21691;-43
2021/08/06 04:35:40;;;;;;;;;;;;;;;28.22;47.30;99406.14;1753525;81;20161;-42
2021/08/06 04:38:06;;;;;;;;;;;;;;;28.22;47.32;99408.31;1750919;80;21021;-42
2021/08/06 04:40:32;;;;;;;;;;;;;;;28.23;47.36;99414.70;1755158;80;20173;-43
2021/08/06 04:42:58;;;;;;;;;;;;;;;28.23;47.35;99396.53;1756663;80;21059;-41
2021/08/06 04:45:25;;;;;;;;;;;;;;;28.24;47.35;99384.95;1748260;80;20383;-43
2021/08/06 04:47:52;;;;;;;;;;;;;;;28.24;47.35;99375.75;1753216;80;20229;-43
2021/08/06 04:50:20;;;;;;;;;;;;;;;28.25;47.39;99377.36;1756959;80;20447;-43
2021/08/06 04:52:46;;;;;;;;;;;;;;;28.26;47.39;99383.95;1751169;80;20159;-42
2021/08/06 04:55:12;;;;;;;;;;;;;;;28.26;47.41;99378.96;1756232;80;21216;-42
2021/08/06 04:57:38;;;;;;;;;;;;;;;28.26;47.41;99374.17;1753760;80;20216;-42
2021/08/06 05:00:06;;;;;;;;;;;;;;;28.27;47.42;99372.14;1750853;80;20174;-43
2021/08/06 05:02:32;;;;;;;;;;;;;;;28.27;47.44;99377.14;1752526;81;20449;-42
2021/08/06 05:04:58;;;;;;;;;;;;;;;28.28;47.45;99383.53;1757434;80;20814;-41
2021/08/06 05:07:24;;;;;;;;;;;;;;;28.28;47.44;99380.73;1757047;80;23253;-41
2021/08/06 05:09:50;;;;;;;;;;;;;;;28.27;47.45;99374.94;1752770;80;20211;-41
2021/08/06 05:12:16;;;;;;;;;;;;;;;28.30;47.48;99379.75;1750823;80;20534;-42
2021/08/06 05:14:42;;;;;;;;;;;;;;;28.30;47.49;99368.56;1749830;80;21153;-43
2021/08/06 05:17:08;;;;;;;;;;;;;;;28.30;47.50;99367.16;1746911;80;20168;-41
2021/08/06 05:19:34;;;;;;;;;;;;;;;28.31;47.63;99375.72;1735040;81;21249;-41
2021/08/06 05:22:03;;;;;;;;;;;;;;;28.32;47.70;99384.32;1750088;80;20083;-42
2021/08/06 05:24:29;;;;;;;;;;;;;;;28.32;47.83;99389.31;1753196;80;20405;-41
2021/08/06 05:26:55;;;;;;;;;;;;;;;28.32;47.88;99400.50;1755579;80;20163;-41
2021/08/06 05:29:21;;;;;;;;;;;;;;;28.33;47.96;99409.10;1763999;80;20200;-41
2021/08/06 05:31:47;;;;;;;;;;;;;;;28.34;48.04;99417.70;1755327;80;21975;-40
2021/08/06 05:34:17;;;;;;;;;;;;;;;28.34;48.16;99417.70;1759131;80;20157;-40
2021/08/06 05:36:41;;;;;;;;;;;;;;;28.35;48.24;99408.08;1754704;80;20597;-41
2021/08/06 05:39:07;;;;;;;;;;;;;;;28.36;48.30;99412.48;1748608;80;20177;-42
2021/08/06 05:41:32;;;;;;;;;;;;;;;28.36;48.31;99411.08;1755637;80;20789;-40
2021/08/06 05:43:58;;;;;;;;;;;;;;;28.37;48.39;99402.89;1752371;80;21928;-41
2021/08/06 05:46:24;;;;;;;;;;;;;;;28.37;48.41;99399.30;1746977;80;20240;-40
2021/08/06 05:48:51;;;;;;;;;;;;;;;28.38;48.42;99400.90;1751293;80;20186;-42
2021/08/06 05:51:17;;;;;;;;;;;;;;;28.38;48.46;99411.49;1752172;80;20450;-41
2021/08/06 05:53:43;;;;;;;;;;;;;;;28.38;48.47;99423.28;1749132;80;20221;-40
2021/08/06 05:56:09;;;;;;;;;;;;;;;28.38;48.52;99431.08;1751477;81;21223;-40
2021/08/06 05:58:35;;;;;;;;;;;;;;;28.38;48.52;99438.06;1752009;80;20406;-40
2021/08/06 06:01:01;;;;;;;;;;;;;;;28.38;48.54;99435.87;1745420;80;20268;-40
2021/08/06 06:03:27;;;;;;;;;;;;;;;28.38;48.58;99434.47;1751551;80;20396;-40
2021/08/06 06:05:53;;;;;;;;;;;;;;;28.39;48.63;99443.06;1749284;80;20273;-40
2021/08/06 06:08:19;;;;;;;;;;;;;;;28.39;48.65;99449.43;1757739;80;21291;-40
2021/08/06 06:10:45;;;;;;;;;;;;;;;28.40;48.66;99444.64;1753982;80;20163;-40
2021/08/06 06:13:11;;;;;;;;;;;;;;;28.40;48.70;99443.23;1755431;80;20786;-41
2021/08/06 06:15:37;;;;;;;;;;;;;;;28.40;48.72;99439.04;1750027;81;20581;-40
2021/08/06 06:18:03;;;;;;;;;;;;;;;28.38;48.77;99438.06;1750722;80;20179;-40
2021/08/06 06:20:29;;;;;;;;;;;;;;;28.40;48.77;99437.64;1752175;80;21036;-40
2021/08/06 06:22:55;;;;;;;;;;;;;;;28.39;48.83;99448.66;1751552;80;21027;-39
2021/08/06 06:25:21;;;;;;;;;;;;;;;28.38;48.84;99463.84;1753986;80;20197;-40
2021/08/06 06:27:59;;;;;;;;;;;;;;;28.40;48.86;99469.81;1750113;80;20419;-39
2021/08/06 06:30:27;;;;;;;;;;;;;;;28.39;48.89;99467.61;1748268;80;20233;-40
2021/08/06 06:32:53;;;;;;;;;;;;;;;28.39;48.91;99469.02;1754141;80;21095;-39
2021/08/06 06:35:20;;;;;;;;;;;;;;;28.39;48.96;99470.41;1750288;80;20218;-39
2021/08/06 06:37:45;;;;;;;;;;;;;;;28.40;48.98;99469.81;1751855;80;20167;-39
2021/08/06 06:40:12;;;;;;;;;;;;;;;28.40;49.02;99484.61;1753026;80;20163;-40
2021/08/06 06:42:38;;;;;;;;;;;;;;;28.40;49.04;99497.79;1750965;80;20478;-40
2021/08/06 06:45:05;;;;;;;;;;;;;;;28.40;49.07;99501.39;1753424;80;21153;-40
2021/08/06 06:47:38;;;;;;;;;;;;;;;28.41;49.09;99510.58;1752662;80;20120;-41
2021/08/06 06:50:05;;;;;;;;;;;;;;;28.40;49.14;99503.38;1752606;80;20090;-41
2021/08/06 06:52:31;;;;;;;;;;;;;;;28.39;49.16;99492.79;1749648;80;20141;-40
2021/08/06 06:54:58;;;;;;;;;;;;;;;28.40;49.20;99490.20;1751687;80;20157;-40
2021/08/06 06:57:24;;;;;;;;;;;;;;;28.41;49.24;99492.40;1748632;80;21100;-40
2021/08/06 06:59:50;;;;;;;;;;;;;;;28.41;49.27;99499.39;1750828;80;20210;-42
2021/08/06 07:02:16;;;;;;;;;;;;;;;28.42;49.31;99503.20;1745051;80;20146;-40
2021/08/06 07:04:42;;;;;;;;;;;;;;;28.43;49.31;99505.40;1750274;80;22128;-43
2021/08/06 07:07:08;;;;;;;;;;;;;;;28.42;49.30;99501.00;1747556;80;20231;-43
2021/08/06 07:09:34;;;;;;;;;;;;;;;28.43;49.33;99504.77;1745910;80;21093;-42
2021/08/06 07:12:00;;;;;;;;;;;;;;;28.44;49.33;99511.97;1679856;84;20184;-41
2021/08/06 07:14:26;;;;;;;;;;;;;;;28.43;49.31;99506.17;1662345;85;20908;-45
2021/08/06 07:16:52;;;;;;;;;;;;;;;28.39;49.21;99505.37;1662240;85;20753;-41
2021/08/06 07:19:18;;;;;;;;;;;;;;;28.36;49.14;99514.58;1683100;84;20227;-42
2021/08/06 07:21:48;;;;;;;;;;;;;;;28.32;49.06;99517.19;1684562;84;21873;-42
2021/08/06 07:24:12;;;;;;;;;;;;;;;28.28;49.00;99518.59;1678975;84;20235;-43
2021/08/06 07:26:37;;;;;;;;;;;;;;;28.24;48.92;99521.98;1684515;84;20215;-43
2021/08/06 07:29:03;;;;;;;;;;;;;;;28.21;48.83;99526.19;1722101;82;20249;-43
2021/08/06 07:31:29;;;;;;;;;;;;;;;28.18;48.77;99529.80;1716427;82;20204;-42
2021/08/06 07:33:55;;;;;;;;;;;;;;;28.13;48.69;99527.57;1720064;82;21034;-43
2021/08/06 07:36:21;;;;;;;;;;;;;;;28.14;48.62;99535.36;1723502;82;21699;-44
2021/08/06 07:38:47;;;;;;;;;;;;;;;28.11;48.50;99537.56;1715328;82;20259;-46
2021/08/06 07:41:13;;;;;;;;;;;;;;;28.09;48.40;99535.75;1722464;82;20155;-42
2021/08/06 07:43:39;;;;;;;;;;;;;;;28.07;48.32;99536.73;1718852;82;20222;-42
2021/08/06 07:46:05;;;;;;;;;;;;;;;28.04;48.20;99538.34;1720188;82;21327;-44
2021/08/06 07:48:31;;;;;;;;;;;;;;;28.02;48.09;99537.93;1714301;82;20179;-43
2021/08/06 07:50:57;;;;;;;;;;;;;;;27.99;47.98;99540.14;1708873;82;20737;-43
2021/08/06 07:53:23;;;;;;;;;;;;;;;27.97;47.87;99537.52;1710280;82;20155;-42
2021/08/06 07:55:49;;;;;;;;;;;;;;;27.95;47.76;99531.54;1719138;82;20282;-43
2021/08/06 07:58:16;;;;;;;;;;;;;;;27.88;47.46;99519.73;1710564;82;21173;-42
2021/08/06 08:00:42;;;;;;;;;;;;;;;27.83;47.24;99518.76;1716734;82;20801;-43
2021/08/06 08:03:07;;;;;;;;;;;;;;;27.76;47.03;99522.12;1719665;82;20536;-43
2021/08/06 08:05:33;;;;;;;;;;;;;;;27.72;46.86;99524.91;1717481;82;20227;-42
2021/08/06 08:07:59;;;;;;;;;;;;;;;27.66;46.70;99534.90;1705378;82;20176;-42
2021/08/06 08:10:25;;;;;;;;;;;;;;;27.61;46.55;99543.06;1722480;81;21182;-44
2021/08/06 08:12:51;;;;;;;;;;;;;;;27.57;46.38;99539.47;1737239;81;20425;-44
2021/08/06 08:15:17;;;;;;;;;;;;;;;27.52;46.24;99527.27;1743283;80;20250;-42
2021/08/06 08:17:44;;;;;;;;;;;;;;;27.48;46.11;99533.45;1748781;81;21004;-42
2021/08/06 08:20:10;;;;;;;;;;;;;;;27.44;46.00;99547.17;1749938;81;20191;-42
2021/08/06 08:22:37;;;;;;;;;;;;;;;27.40;45.89;99566.72;1737657;80;21188;-43
2021/08/06 08:25:03;;;;;;;;;;;;;;;27.36;45.78;99574.28;1743481;81;20212;-42
2021/08/06 08:27:29;;;;;;;;;;;;;;;27.34;45.66;99591.21;1751798;81;20441;-43
2021/08/06 08:29:55;;;;;;;;;;;;;;;27.30;45.59;99582.02;1751581;81;21923;-46
2021/08/06 08:32:21;;;;;;;;;;;;;;;27.26;45.48;99575.03;1742224;81;20159;-43
2021/08/06 08:34:47;;;;;;;;;;;;;;;27.21;45.39;99576.20;1738234;81;21046;-45
2021/08/06 08:37:14;;;;;;;;;;;;;;;27.19;45.31;99588.97;1741680;81;20211;-44
2021/08/06 08:39:40;;;;;;;;;;;;;;;27.15;45.23;99577.78;1749904;81;20144;-42
2021/08/06 08:42:06;;;;;;;;;;;;;;;27.11;45.13;99584.55;1738306;81;22232;-44
2021/08/06 08:44:34;;;;;;;;;;;;;;;27.06;45.09;99573.74;1742672;81;20270;-43
2021/08/06 08:47:01;;;;;;;;;;;;;;;27.04;45.01;99550.98;1739531;81;22225;-43
2021/08/06 08:49:30;;;;;;;;;;;;;;;26.98;44.93;99533.83;1741599;81;20224;-43
2021/08/06 08:51:56;;;;;;;;;;;;;;;26.95;44.87;99537.38;1752881;81;20228;-43
2021/08/06 08:54:22;;;;;;;;;;;;;;;26.92;44.76;99544.34;1741052;81;20429;-43
2021/08/06 08:56:48;;;;;;;;;;;;;;;26.88;44.70;99550.50;1739896;81;20156;-44
2021/08/06 08:59:14;;;;;;;;;;;;;;;26.85;44.65;99549.31;1739327;81;21247;-44
2021/08/06 09:01:39;;;;;;;;;;;;;;;26.82;44.60;99533.29;1745499;81;20855;-44
2021/08/06 09:04:26;;;;;;;;;;;;;;;26.79;44.56;99518.73;1736884;81;20183;-44
2021/08/06 09:06:52;;;;;;;;;;;;;;;26.76;44.51;99525.10;1744634;81;22059;-43
2021/08/06 09:09:21;;;;;;;;;;;;;;;26.74;44.45;99560.36;1746781;81;20171;-44
2021/08/06 09:11:49;;;;;;;;;;;;;;;26.72;44.36;99557.77;1742716;80;21134;-43
2021/08/06 09:14:22;;;;;;;;;;;;;;;26.68;44.27;99559.73;1737302;80;20279;-43
2021/08/06 09:17:01;;;;;;;;;;;;;;;26.68;44.30;99573.09;1740646;80;20096;-45
2021/08/06 09:19:29;;;;;;;;;;;;;;;26.73;44.33;99588.67;1741608;80;20241;-45
2021/08/06 09:22:24;;;;;;;;;;;;;;;26.77;44.35;99597.27;1737378;80;20141;-46
2021/08/06 09:25:14;;;;;;;;;;;;;;;26.83;44.37;99592.11;1743045;80;21660;-44
2021/08/06 09:27:41;;;;;;;;;;;;;;;26.87;44.39;99576.22;1747046;80;20175;-42
2021/08/06 09:30:11;;;;;;;;;;;;;;;26.93;44.39;99573.86;1745384;80;20266;-43
2021/08/06 09:32:51;;;;;;;;;;;;;;;26.97;44.44;99581.07;1744512;80;20206;-44
2021/08/06 09:35:18;;;;;;;;;;;;;;;27.00;44.46;99594.23;1744600;80;20165;-43
2021/08/06 09:37:44;;;;;;;;;;;;;;;27.05;44.50;99591.67;1747303;80;21077;-44
2021/08/06 09:40:15;;;;;;;;;;;;;;;27.07;44.53;99569.17;1746201;80;20157;-44
2021/08/06 09:42:50;;;;;;;;;;;;;;;27.10;44.56;99554.42;1736783;80;20181;-47
2021/08/06 09:45:17;;;;;;;;;;;;;;;27.13;44.60;99540.27;1742318;80;20158;-43
2021/08/06 09:47:46;;;;;;;;;;;;;;;27.17;44.63;99594.12;1745879;80;20220;-45
2021/08/06 09:50:14;;;;;;;;;;;;;;;27.20;44.67;99586.39;1742621;80;21067;-44
2021/08/06 09:52:42;;;;;;;;;;;;;;;27.22;44.69;99563.84;1742022;80;20137;-45
2021/08/06 09:55:11;;;;;;;;;;;;;;;27.24;44.73;99553.07;1745553;80;20151;-44
2021/08/06 09:57:44;;;;;;;;;;;;;;;27.26;44.75;99528.36;1747884;80;20735;-44
2021/08/06 10:00:13;;;;;;;;;;;;;;;27.28;44.80;99528.75;1745321;80;20151;-48
2021/08/06 10:02:38;;;;;;;;;;;;;;;27.32;44.80;99546.14;1743476;80;21234;-44
2021/08/06 10:05:13;;;;;;;;;;;;;;;27.33;44.83;99543.55;1720705;82;20399;-43
2021/08/06 10:07:43;;;;;;;;;;;;;;;27.36;44.85;99551.14;1746902;80;20484;-43
2021/08/06 10:10:17;;;;;;;;;;;;;;;27.38;44.89;99553.73;1744050;80;20864;-45
2021/08/06 10:12:46;;;;;;;;;;;;;;;27.40;44.91;99567.31;1740223;79;20174;-44
2021/08/06 10:15:12;;;;;;;;;;;;;;;27.42;44.94;99579.67;1741657;80;21144;-45
2021/08/06 10:17:38;;;;;;;;;;;;;;;27.43;44.96;99582.68;1746022;80;21652;-44
2021/08/06 10:20:05;;;;;;;;;;;;;;;27.46;44.99;99586.08;1745136;80;20184;-44
2021/08/06 10:22:31;;;;;;;;;;;;;;;27.49;44.99;99578.95;1746271;80;20428;-44
2021/08/06 10:24:57;;;;;;;;;;;;;;;27.50;45.02;99581.92;1747752;80;20759;-43
2021/08/06 10:27:24;;;;;;;;;;;;;;;27.52;45.04;99564.19;1743597;80;20982;-44
2021/08/06 10:29:59;;;;;;;;;;;;;;;27.54;45.08;99549.24;1743408;80;20275;-44
2021/08/06 10:32:26;;;;;;;;;;;;;;;27.55;45.07;99539.05;1745885;80;20166;-44
2021/08/06 10:35:16;;;;;;;;;;;;;;;27.58;45.13;99543.84;1746540;80;20191;-43
2021/08/06 10:37:59;;;;;;;;;;;;;;;27.60;45.16;99537.87;1740044;80;20139;-43
2021/08/06 10:40:37;;;;;;;;;;;;;;;27.62;45.15;99542.47;1744266;80;21929;-45
2021/08/06 10:43:13;;;;;;;;;;;;;;;27.62;45.17;99543.28;1743056;80;20129;-44
2021/08/06 10:45:49;;;;;;;;;;;;;;;27.65;45.19;99557.05;1747574;80;20116;-44
2021/08/06 10:48:34;;;;;;;;;;;;;;;27.65;45.24;99576.60;1743642;80;20284;-43
2021/08/06 10:51:16;;;;;;;;;;;;;;;27.65;45.25;99585.79;1747001;80;20137;-44
2021/08/06 10:53:51;;;;;;;;;;;;;;;27.66;45.29;99597.18;1715620;82;21027;-44
2021/08/06 10:56:30;;;;;;;;;;;;;;;27.67;45.29;99589.56;1694844;83;20129;-44
2021/08/06 10:58:58;;;;;;;;;;;;;;;27.67;45.31;99582.58;1702758;83;20193;-45
2021/08/06 11:01:31;;;;;;;;;;;;;;;27.67;45.33;99581.98;1710491;82;20411;-43
2021/08/06 11:04:09;;;;;;;;;;;;;;;27.68;45.40;99574.41;1715212;82;20154;-44
2021/08/06 11:06:37;;;;;;;;;;;;;;;27.68;45.43;99579.41;1719421;82;21097;-43
2021/08/06 11:09:06;;;;;;;;;;;;;;;27.67;45.46;99570.00;1715467;82;20368;-44
2021/08/06 11:11:47;;;;;;;;;;;;;;;27.68;45.46;99564.63;1711810;81;20408;-43
2021/08/06 11:14:31;;;;;;;;;;;;;;;27.69;45.51;99555.86;1712729;82;21068;-43
2021/08/06 11:17:12;;;;;;;;;;;;;;;27.69;45.52;99548.88;1697542;82;20193;-43
2021/08/06 11:19:46;;;;;;;;;;;;;;;27.70;45.55;99528.72;1712067;82;21160;-42
2021/08/06 11:22:27;;;;;;;;;;;;;;;27.70;45.57;99511.95;1709785;82;20193;-43
2021/08/06 11:24:59;;;;;;;;;;;;;;;27.70;45.60;99511.36;1713307;82;20400;-46
2021/08/06 11:27:38;;;;;;;;;;;;;;;27.69;45.63;99506.16;1744494;80;20234;-48
2021/08/06 11:30:14;;;;;;;;;;;;;;;27.70;45.66;99507.76;1750976;80;20168;-42
2021/08/06 11:32:52;;;;;;;;;;;;;;;27.71;45.68;99505.95;1749541;80;21189;-43
2021/08/06 11:35:24;;;;;;;;;;;;;;;27.72;45.72;99522.12;1755547;80;20158;-45
2021/08/06 11:37:58;;;;;;;;;;;;;;;27.71;45.73;99521.31;1745237;80;20329;-42
2021/08/06 11:40:28;;;;;;;;;;;;;;;27.72;45.78;99529.11;1747126;80;20171;-43
2021/08/06 11:42:54;;;;;;;;;;;;;;;27.72;45.78;99527.70;1755888;80;20192;-44
2021/08/06 11:45:24;;;;;;;;;;;;;;;27.72;45.80;99531.90;1753582;80;21087;-42
2021/08/06 11:47:51;;;;;;;;;;;;;;;27.74;45.84;99526.73;1753727;80;20359;-43
2021/08/06 11:50:19;;;;;;;;;;;;;;;27.74;45.86;99517.54;1750378;80;20157;-44
2021/08/06 11:52:48;;;;;;;;;;;;;;;27.74;45.89;99510.55;1747788;80;20921;-44
2021/08/06 11:55:19;;;;;;;;;;;;;;;27.75;45.92;99504.58;1753246;80;20253;-44
2021/08/06 11:57:48;;;;;;;;;;;;;;;27.75;45.93;99496.79;1746598;80;21085;-44
2021/08/06 12:00:20;;;;;;;;;;;;;;;27.77;45.95;99494.38;1751991;80;20330;-44
2021/08/06 12:02:46;;;;;;;;;;;;;;;27.78;45.98;99498.78;1747937;80;20232;-42
2021/08/06 12:05:23;;;;;;;;;;;;;;;27.78;46.01;99495.39;1749585;80;20166;-42
2021/08/06 12:07:49;;;;;;;;;;;;;;;27.80;46.02;99490.78;1749931;80;20136;-44
2021/08/06 12:10:15;;;;;;;;;;;;;;;27.81;46.02;99484.00;1752892;80;21209;-42
2021/08/06 12:12:41;;;;;;;;;;;;;;;27.80;46.02;99484.59;1748857;80;20300;-44
2021/08/06 12:15:22;;;;;;;;;;;;;;;27.82;46.06;99477.22;1748681;80;20742;-44
2021/08/06 12:17:48;;;;;;;;;;;;;;;27.84;46.07;99472.05;1749004;80;20184;-44
2021/08/06 12:20:35;;;;;;;;;;;;;;;27.85;46.09;99461.84;1750004;80;20408;-44
2021/08/06 12:23:01;;;;;;;;;;;;;;;27.88;46.10;99460.27;1750286;80;21254;-43
2021/08/06 12:25:27;;;;;;;;;;;;;;;27.89;46.14;99451.46;1747166;80;20600;-43
2021/08/06 12:27:53;;;;;;;;;;;;;;;27.93;46.17;99459.25;1753164;80;20161;-43
2021/08/06 12:30:24;;;;;;;;;;;;;;;27.93;46.21;99452.85;1751189;80;20170;-43
2021/08/06 12:32:50;;;;;;;;;;;;;;;27.96;46.23;99454.88;1730487;80;20462;-45
2021/08/06 12:35:26;;;;;;;;;;;;;;;27.98;46.25;99454.66;1756741;80;21102;-44
2021/08/06 12:37:52;;;;;;;;;;;;;;;27.99;46.27;99457.66;1752875;80;20387;-43
2021/08/06 12:40:19;;;;;;;;;;;;;;;28.01;46.27;99451.05;1749581;80;20243;-42
2021/08/06 12:42:45;;;;;;;;;;;;;;;28.03;46.29;99454.27;1750144;80;20146;-44
2021/08/06 12:45:17;;;;;;;;;;;;;;;28.05;46.31;99448.28;1753755;80;20218;-42
2021/08/06 12:47:51;;;;;;;;;;;;;;;28.05;46.34;99439.89;1755026;80;20991;-42
2021/08/06 12:50:31;;;;;;;;;;;;;;;28.07;46.37;99431.88;1751653;79;20143;-44
2021/08/06 12:53:04;;;;;;;;;;;;;;;28.09;46.38;99433.70;1748410;80;20110;-44
2021/08/06 12:55:33;;;;;;;;;;;;;;;28.12;46.39;99436.52;1751123;80;20449;-43